Flight Information

DEPARTURE
VAN NUYS, CA
Elevation:
802
Runways:
16L/34R - 4013x75 - ASPH-G
16R/34L - 8001x150 - ASPH-G
Active PE Departure:
16L - 16R
Current PE ATIS:
Y
Altimeter:
29.80
Remarks:
ATIS:
127.55 818-780-4993
Clearance Delivery:
126.6
Ground:
121.7
Tower:
119.3 (162-345 and dep Rwy 16R-34L)
120.2 (346-161 and dep Rwy 16L-34R)
DESTINATION
PHOENIX, AZ
Elevation:
1384
TPA:
2602 (1218)
Runways:
12C/30C - 10201x150 - ASPH-CONC-G
12L/30R - 9300x150 - CONC-G
12R/30L - 10401x150 - CONC-G
Tower:
120.6


345.1 NM97° True-14° Var83° HDG

Flight Plan:
(click to file on line)

1. Type
2. Aircraft Identification
3. Aircraft Type / Special Equipment
4. True Airspeed
kts
5. Departure Airport
(ICAO code)
6. Arriving Airport
(ICAO code)
7. Cruising Altitude
ft
8. Alternate Airport
(ICAO code)
9. Route of Flight
10. Remarks


00:00:00 Departure ATIS: Destination ATIS:

Clearance Limit:
Route:
Altitude: Expect in minutes
Frequency:
Transponder: (7500 Hijack / 7600 Lost Comms / 7700 Emergency)


KVNY 110251Z 10003KT 10SM CLR 21/05 A2980 RMK AO2 SLP086 T02060050 53004
Time: 2021-04-11T02:51:00Z
1618110731
Winds: 100 @ 3 kts
Visibility: 10.0 sm
Clouds (AGL): CLR
Temperature: 20.6 C
Dew Point: 5.0 C
Pressure: 29.799213 in Hgbr

KIWA 110250Z 02005KT 10SM FEW250 28/M07 A2972
Time: 2021-04-11T02:50:00Z
1618110731
Winds: 20 @ 5 kts
Visibility: 10.0 sm
Clouds (AGL): FEW 25000
Temperature: 28.0 C
Dew Point: -7.0 C
Pressure: 29.719488 in Hgbr


Notes:

Data extracted from FAA Digital Chart Supplement. Effective: 0901Z Thursday, Feb 25, 2021 to 0901Z Thursday, APR 22, 2021
Current ATIS data is provided courtisy of PilotEdge.